Willards, Maryland
Current Conditions -  °F | °C
As of 10:14 AM on Wednesday 26 Nov 2014 (Local Time) from KSBY Reporting Station
Light Rain Light Rain  
Wind Chill: 39°   Ceiling: 800
Heat Index: 46°   Visibility: 4mi
Dew Point: 41°   Wind: 18mph
Humidity: 83%   Direction: 30°NNE
Pressure: 29.91"   Gusts: 28mph
Location:  38.39°N, 75.35°W
Report Text: KSBY 261514Z 03016G24KT 4SM -RA OVC008 08/05 A2991 RMK AO2 PRESFR P0002 T00780050
Loading
Personal Weather Stations






























Interactive Weather Map New forecast layout! Learn more

10-Day Weather Forecast

Advertisements
Track Severe Weather on mobile